Time;durP1;ratioP1;P1;durP2;ratioP2;P2;SDS_P1;SDS_P2;PMS_P1;PMS_P2;Temp;Humidity;BMP_temperature;BMP_pressure;BME280_temperature;BME280_humidity;BME280_pressure;Samples;Min_cycle;Max_cycle;Signal;HPM_P1;HPM_P2
2021/04/17 00:01:46;;;;;;;32.50;22.45;;;;;;;4.30;84.99;98355.19;5035962;28;45347;-84
2021/04/17 00:04:12;;;;;;;35.58;23.13;;;;;;;4.16;86.32;98348.28;5037395;28;45286;-85
2021/04/17 00:06:37;;;;;;;30.10;21.08;;;;;;;4.54;83.69;98351.66;5037348;28;45362;-85
2021/04/17 00:09:10;;;;;;;33.63;22.92;;;;;;;4.52;84.79;98348.31;5037240;28;45492;-85
2021/04/17 00:11:36;;;;;;;33.42;23.88;;;;;;;4.18;86.31;98346.38;5040254;28;45286;-86
2021/04/17 00:14:04;;;;;;;37.47;26.05;;;;;;;4.14;87.44;98338.84;5039608;28;45287;-86
2021/04/17 00:16:30;;;;;;;34.55;22.65;;;;;;;4.20;86.68;98338.38;5036846;28;46330;-86
2021/04/17 00:18:55;;;;;;;29.58;20.02;;;;;;;4.48;84.17;98344.22;5050822;28;45239;-86
2021/04/17 00:21:21;;;;;;;29.73;21.17;;;;;;;4.50;84.86;98344.94;5037399;28;45344;-86
2021/04/17 00:23:46;;;;;;;32.72;22.05;;;;;;;4.33;85.95;98333.88;5037272;28;45436;-86
2021/04/17 00:26:11;;;;;;;29.73;21.73;;;;;;;4.45;85.17;98331.28;5037030;28;45556;-86
2021/04/17 00:28:37;;;;;;;31.45;22.58;;;;;;;4.34;85.88;98330.28;5034589;28;45649;-86
2021/04/17 00:31:02;;;;;;;32.53;22.45;;;;;;;4.20;87.15;98322.59;5040582;28;45204;-86
2021/04/17 00:33:28;;;;;;;31.40;22.77;;;;;;;4.33;86.82;98319.88;5040520;28;45394;-86
2021/04/17 00:35:53;;;;;;;33.20;23.13;;;;;;;4.22;87.58;98318.03;5031609;28;48423;-86
2021/04/17 00:38:19;;;;;;;33.90;24.38;;;;;;;4.28;87.55;98317.59;5053767;28;45202;-85
2021/04/17 00:40:45;;;;;;;31.48;22.00;;;;;;;4.76;83.30;98311.38;5031319;28;45350;-85
2021/04/17 00:43:10;;;;;;;33.42;23.35;;;;;;;4.63;84.71;98313.25;5040379;28;45357;-85
2021/04/17 00:45:36;;;;;;;31.15;23.17;;;;;;;4.82;82.67;98315.31;5029605;28;47502;-85
2021/04/17 00:48:02;;;;;;;33.65;22.67;;;;;;;4.70;84.02;98313.63;5029608;28;45340;-86
2021/04/17 00:50:28;;;;;;;28.80;21.08;;;;;;;4.85;81.99;98312.44;5031948;28;45500;-87
2021/04/17 00:52:54;;;;;;;33.47;22.33;;;;;;;4.80;82.10;98315.44;5040434;28;45389;-86
2021/04/17 00:55:20;;;;;;;31.40;23.20;;;;;;;4.29;84.83;98311.38;5040024;28;45472;-86
2021/04/17 00:57:45;;;;;;;31.73;21.88;;;;;;;4.56;82.51;98307.59;5040206;28;45278;-87
2021/04/17 01:00:12;;;;;;;27.48;20.70;;;;;;;4.78;81.06;98311.22;5030154;28;45525;-87
2021/04/17 01:02:55;;;;;;;30.17;21.05;;;;;;;4.44;83.74;98304.13;5053242;28;45421;-87
2021/04/17 01:05:24;;;;;;;27.40;19.75;;;;;;;4.66;81.90;98308.59;5040141;28;46377;-87
2021/04/17 01:07:51;;;;;;;28.48;20.13;;;;;;;4.93;80.97;98310.06;5040216;28;45378;-86
2021/04/17 01:10:28;;;;;;;27.38;20.63;;;;;;;4.95;80.70;98312.56;5040049;28;45321;-87
2021/04/17 01:12:56;;;;;;;29.00;20.27;;;;;;;4.67;82.21;98310.25;5027484;28;45664;-87
2021/04/17 01:15:23;;;;;;;32.13;22.42;;;;;;;4.59;82.18;98309.19;5039524;28;46568;-86
2021/04/17 01:17:52;;;;;;;29.30;22.10;;;;;;;4.61;82.01;98312.53;5049678;28;45362;-86
2021/04/17 01:20:40;;;;;;;31.95;21.50;;;;;;;4.78;81.04;98311.22;5038552;28;45403;-87
2021/04/17 01:23:14;;;;;;;28.85;21.30;;;;;;;4.79;80.97;98316.41;5039951;28;45573;-86
2021/04/17 01:25:52;;;;;;;29.50;20.95;;;;;;;4.33;83.24;98315.44;5047568;28;45460;-85
2021/04/17 01:28:18;;;;;;;30.48;21.73;;;;;;;4.05;84.80;98320.13;5041105;28;45332;-86
2021/04/17 01:30:50;;;;;;;28.48;20.85;;;;;;;4.03;84.48;98308.88;5050432;28;45278;-86
2021/04/17 01:33:17;;;;;;;32.80;21.80;;;;;;;4.04;84.63;98307.06;5039393;28;45436;-86
2021/04/17 01:35:43;;;;;;;32.88;22.77;;;;;;;3.92;86.18;98308.81;5026763;28;47245;-86
2021/04/17 01:38:31;;;;;;;30.58;21.08;;;;;;;3.71;86.22;98312.06;5049316;28;45247;-86
2021/04/17 01:41:00;;;;;;;36.58;23.48;;;;;;;3.72;87.77;98305.84;5045049;28;45270;-86
2021/04/17 01:43:27;;;;;;;32.65;21.17;;;;;;;3.75;87.50;98303.00;5052960;28;45261;-85
2021/04/17 01:45:56;;;;;;;31.85;21.90;;;;;;;3.73;87.59;98304.06;5039701;28;46244;-86
2021/04/17 01:48:26;;;;;;;34.20;23.45;;;;;;;3.79;87.86;98298.38;5028113;28;45363;-86
2021/04/17 01:50:53;;;;;;;33.70;24.10;;;;;;;3.99;87.63;98291.66;5039475;28;45432;-86
2021/04/17 01:53:23;;;;;;;33.63;22.92;;;;;;;4.10;85.20;98298.72;5040604;28;45596;-84
2021/04/17 01:55:50;;;;;;;34.13;23.42;;;;;;;4.47;83.30;98306.53;5038510;28;48090;-85
2021/04/17 01:58:24;;;;;;;30.90;21.85;;;;;;;4.81;81.67;98300.44;5051055;28;45261;-84
2021/04/17 02:00:55;;;;;;;32.25;21.88;;;;;;;4.73;84.56;98305.47;5043662;28;45260;-84
2021/04/17 02:03:21;;;;;;;29.70;22.10;;;;;;;4.86;81.46;98300.13;5039771;28;45484;-85
2021/04/17 02:05:49;;;;;;;30.23;22.60;;;;;;;5.06;80.57;98303.84;5038900;28;45475;-84
2021/04/17 02:08:15;;;;;;;29.63;22.02;;;;;;;5.07;79.82;98297.63;5028141;28;45433;-85
2021/04/17 02:10:40;;;;;;;32.45;21.83;;;;;;;5.01;80.63;98300.72;5052525;28;45284;-85
2021/04/17 02:13:08;;;;;;;34.35;24.25;;;;;;;5.02;81.54;98291.88;5045368;28;45419;-84
2021/04/17 02:15:36;;;;;;;34.15;23.33;;;;;;;4.95;83.33;98300.25;5042177;28;45338;-84
2021/04/17 02:18:24;;;;;;;37.20;24.60;;;;;;;4.65;84.75;98292.91;5048196;28;45330;-84
2021/04/17 02:21:01;;;;;;;36.85;24.70;;;;;;;4.72;84.36;98301.16;5052378;28;45301;-85
2021/04/17 02:23:28;;;;;;;33.30;22.65;;;;;;;4.94;83.64;98297.72;5038659;28;45204;-85
2021/04/17 02:25:55;;;;;;;30.08;22.08;;;;;;;5.06;82.16;98288.03;5026478;28;47194;-84
2021/04/17 02:28:21;;;;;;;31.00;21.55;;;;;;;5.22;80.97;98292.91;5052204;28;45401;-85
2021/04/17 02:30:46;;;;;;;31.02;22.08;;;;;;;5.39;80.21;98296.88;5038900;28;45532;-85
2021/04/17 02:33:12;;;;;;;33.97;22.63;;;;;;;5.31;81.50;98291.38;5038430;28;45425;-85
2021/04/17 02:35:37;;;;;;;30.23;21.77;;;;;;;5.33;79.97;98282.38;5026936;28;46744;-85
2021/04/17 02:38:03;;;;;;;30.13;21.95;;;;;;;5.32;79.98;98293.91;5051936;28;45314;-85
2021/04/17 02:40:28;;;;;;;30.02;21.63;;;;;;;5.44;79.38;98286.78;5043527;28;45465;-85
2021/04/17 02:42:54;;;;;;;29.17;21.63;;;;;;;5.52;78.65;98287.00;5051932;28;45585;-85
2021/04/17 02:45:19;;;;;;;31.45;22.33;;;;;;;5.32;80.09;98282.50;5025419;28;47490;-85
2021/04/17 02:47:45;;;;;;;30.58;22.15;;;;;;;5.44;79.80;98285.97;5054455;28;45310;-85
2021/04/17 02:50:10;;;;;;;34.92;23.95;;;;;;;5.40;79.70;98278.31;5032177;28;45501;-85
2021/04/17 02:52:36;;;;;;;34.03;23.67;;;;;;;5.32;79.83;98290.41;5038465;28;45223;-85
2021/04/17 02:55:02;;;;;;;31.05;22.05;;;;;;;5.28;79.67;98287.16;5038283;28;46077;-85
2021/04/17 02:57:28;;;;;;;34.28;24.77;;;;;;;5.36;79.56;98282.16;5033654;28;45412;-85
2021/04/17 02:59:53;;;;;;;33.08;23.98;;;;;;;5.02;82.61;98283.97;5038610;28;45480;-85
2021/04/17 03:02:18;;;;;;;32.95;23.88;;;;;;;5.09;81.23;98282.53;5032990;28;45486;-85
2021/04/17 03:04:44;;;;;;;33.10;23.80;;;;;;;5.03;82.43;98281.19;5050064;28;46594;-85
2021/04/17 03:07:09;;;;;;;35.40;25.10;;;;;;;5.05;82.19;98274.00;5031927;28;45185;-85
2021/04/17 03:09:35;;;;;;;34.60;23.75;;;;;;;5.20;82.75;98284.28;5038313;28;45472;-85
2021/04/17 03:12:00;;;;;;;32.03;22.75;;;;;;;5.36;81.12;98281.28;5043941;28;45539;-84
2021/04/17 03:14:25;;;;;;;29.60;23.25;;;;;;;5.53;80.49;98274.69;5038069;28;46086;-83
2021/04/17 03:16:51;;;;;;;34.00;24.33;;;;;;;5.36;82.67;98273.38;5039287;28;45326;-84
2021/04/17 03:19:17;;;;;;;32.40;24.23;;;;;;;5.10;84.29;98274.47;5046469;28;45460;-83
2021/04/17 03:21:42;;;;;;;33.40;24.15;;;;;;;5.18;82.87;98270.38;5033919;28;45473;-84
2021/04/17 03:24:08;;;;;;;32.05;23.63;;;;;;;5.36;81.52;98262.81;5036596;28;47127;-83
2021/04/17 03:26:33;;;;;;;34.67;25.92;;;;;;;5.25;82.67;98272.44;5051112;28;45271;-84
2021/04/17 03:28:59;;;;;;;34.75;25.27;;;;;;;5.05;83.53;98267.91;5038049;28;45293;-85
2021/04/17 03:31:24;;;;;;;38.22;26.63;;;;;;;4.98;83.49;98275.44;5033902;28;45319;-85
2021/04/17 03:33:50;;;;;;;35.83;26.23;;;;;;;5.00;84.16;98270.06;5049120;28;45417;-85
2021/04/17 03:36:15;;;;;;;36.85;26.80;;;;;;;4.90;83.24;98276.06;5037569;28;45352;-85
2021/04/17 03:38:41;;;;;;;37.38;26.10;;;;;;;4.96;83.49;98278.22;5025382;28;45248;-83
2021/04/17 03:41:07;;;;;;;34.55;24.58;;;;;;;5.03;83.12;98275.09;5040045;28;45478;-84
2021/04/17 03:43:32;;;;;;;33.75;25.05;;;;;;;5.28;81.64;98273.97;5039576;28;48172;-86
2021/04/17 03:45:58;;;;;;;31.08;23.52;;;;;;;5.29;80.52;98272.19;5044241;28;45219;-86
2021/04/17 03:48:23;;;;;;;34.33;25.95;;;;;;;5.31;80.35;98271.13;5048059;28;45271;-85
2021/04/17 03:50:49;;;;;;;38.67;26.85;;;;;;;5.02;83.43;98274.25;5044206;28;45581;-84
2021/04/17 03:53:14;;;;;;;34.25;25.52;;;;;;;5.13;83.07;98276.03;5022984;28;48361;-84
2021/04/17 03:55:40;;;;;;;37.22;26.85;;;;;;;5.16;82.96;98270.53;5050679;28;45233;-85
2021/04/17 03:58:05;;;;;;;32.97;24.98;;;;;;;5.18;82.69;98273.88;5037893;28;45508;-85
2021/04/17 04:00:31;;;;;;;31.75;24.23;;;;;;;5.31;81.76;98272.91;5050183;28;45356;-84
2021/04/17 04:02:56;;;;;;;37.30;26.33;;;;;;;4.87;82.75;98267.53;5033744;28;47386;-84
2021/04/17 04:05:22;;;;;;;34.55;25.95;;;;;;;4.86;83.24;98281.66;5041211;28;45325;-85
2021/04/17 04:07:47;;;;;;;35.00;26.48;;;;;;;5.04;82.59;98277.59;5036618;28;45375;-85
2021/04/17 04:10:13;;;;;;;35.28;26.08;;;;;;;4.94;83.75;98268.72;5041067;28;45368;-85
2021/04/17 04:12:41;;;;;;;35.42;24.50;;;;;;;5.19;81.53;98272.91;5045433;28;46964;-86
2021/04/17 04:15:07;;;;;;;34.75;25.23;;;;;;;5.25;80.88;98269.78;5033732;28;45260;-85
2021/04/17 04:17:33;;;;;;;34.20;24.90;;;;;;;5.29;81.24;98273.00;5053435;28;45461;-85
2021/04/17 04:19:58;;;;;;;35.00;25.83;;;;;;;5.12;82.54;98274.38;5040947;28;45409;-85
2021/04/17 04:22:24;;;;;;;36.22;27.13;;;;;;;4.90;84.37;98272.56;5040824;28;46467;-85
2021/04/17 04:24:49;;;;;;;33.65;24.70;;;;;;;5.13;82.31;98273.41;5032020;28;45252;-85
2021/04/17 04:27:14;;;;;;;34.15;25.25;;;;;;;5.23;82.81;98273.50;5026834;28;45382;-85
2021/04/17 04:29:40;;;;;;;35.38;24.60;;;;;;;5.32;82.43;98279.84;5036263;28;45561;-85
2021/04/17 04:32:06;;;;;;;32.95;24.60;;;;;;;5.43;80.92;98279.00;5040419;28;45548;-85
2021/04/17 04:34:31;;;;;;;32.85;25.00;;;;;;;5.45;80.69;98282.38;5033956;28;45675;-85
2021/04/17 04:36:57;;;;;;;33.83;25.35;;;;;;;5.34;83.09;98283.22;5053503;28;45327;-85
2021/04/17 04:39:22;;;;;;;33.45;24.33;;;;;;;5.30;82.45;98284.41;5040373;28;45488;-86
2021/04/17 04:41:48;;;;;;;35.13;25.63;;;;;;;5.08;83.49;98292.22;5045861;28;45354;-85
2021/04/17 04:44:13;;;;;;;37.30;26.30;;;;;;;4.86;84.51;98297.47;5048155;28;45571;-85
2021/04/17 04:46:38;;;;;;;36.28;26.23;;;;;;;5.02;84.14;98294.50;5028132;28;45383;-85
2021/04/17 04:49:04;;;;;;;35.88;25.75;;;;;;;4.82;85.42;98295.09;5056143;28;45324;-85
2021/04/17 04:51:29;;;;;;;37.50;26.00;;;;;;;5.07;83.40;98300.25;5040746;28;46212;-85
2021/04/17 04:53:55;;;;;;;33.55;25.27;;;;;;;4.85;84.86;98290.53;5040385;28;45485;-85
2021/04/17 04:56:21;;;;;;;33.28;25.20;;;;;;;5.13;83.13;98293.66;5040224;28;45359;-85
2021/04/17 04:58:47;;;;;;;34.17;24.25;;;;;;;5.11;83.49;98291.16;5040400;28;45580;-86
2021/04/17 05:01:12;;;;;;;33.13;24.95;;;;;;;4.97;84.38;98305.38;5035063;28;48027;-87
2021/04/17 05:03:38;;;;;;;35.90;25.58;;;;;;;5.20;83.46;98310.66;5037873;28;45504;-87
2021/04/17 05:06:03;;;;;;;36.75;24.98;;;;;;;5.35;81.40;98309.47;5045582;28;45287;-86
2021/04/17 05:08:29;;;;;;;35.08;25.52;;;;;;;5.01;83.62;98316.53;5046341;28;45287;-87
2021/04/17 05:10:54;;;;;;;40.08;26.70;;;;;;;4.89;84.54;98313.91;5038200;28;47579;-87
2021/04/17 05:13:20;;;;;;;34.63;25.42;;;;;;;5.06;84.27;98315.22;5028982;28;45675;-84
2021/04/17 05:15:45;;;;;;;36.60;26.30;;;;;;;5.16;82.56;98310.06;5052222;28;45254;-85
2021/04/17 05:18:11;;;;;;;35.00;26.23;;;;;;;5.16;82.48;98312.72;5032914;28;45460;-84
2021/04/17 05:20:36;;;;;;;37.20;26.40;;;;;;;5.07;83.24;98305.53;5034101;28;48036;-84
2021/04/17 05:23:01;;;;;;;40.45;27.92;;;;;;;5.10;83.77;98307.91;5047938;28;45298;-85
2021/04/17 05:25:27;;;;;;;38.72;27.08;;;;;;;5.01;83.99;98301.56;5039327;28;45467;-84
2021/04/17 05:27:52;;;;;;;44.40;28.40;;;;;;;4.67;85.89;98305.00;5039204;28;45640;-84
2021/04/17 05:30:18;;;;;;;43.42;30.08;;;;;;;4.61;86.47;98302.00;5039205;28;45690;-85
2021/04/17 05:32:44;;;;;;;43.88;31.17;;;;;;;4.55;85.28;98305.09;5038795;28;45408;-87
2021/04/17 05:35:10;;;;;;;39.72;29.05;;;;;;;4.62;83.44;98295.78;5030895;28;45399;-87
2021/04/17 05:37:35;;;;;;;31.25;23.52;;;;;;;4.43;81.28;98294.53;5052423;28;45544;-88
2021/04/17 05:40:02;;;;;;;33.67;23.40;;;;;;;4.60;81.58;98290.63;5047532;28;46288;-87
2021/04/17 05:42:27;;;;;;;31.27;23.00;;;;;;;4.74;80.66;98289.56;5055550;28;45442;-88
2021/04/17 05:44:53;;;;;;;31.52;24.00;;;;;;;4.66;79.75;98292.78;5037799;28;45447;-87
2021/04/17 05:47:18;;;;;;;31.42;23.58;;;;;;;4.70;80.15;98284.63;5045563;28;45740;-87
2021/04/17 05:49:44;;;;;;;29.42;21.92;;;;;;;4.75;80.80;98287.75;5047229;28;48329;-86
2021/04/17 05:52:09;;;;;;;28.90;21.45;;;;;;;4.65;79.69;98287.63;5021013;28;45390;-87
2021/04/17 05:54:35;;;;;;;27.50;20.83;;;;;;;4.62;79.29;98290.50;5039271;28;45397;-85
2021/04/17 05:57:00;;;;;;;25.52;18.83;;;;;;;4.51;78.95;98280.78;5038706;28;45773;-84
2021/04/17 05:59:26;;;;;;;26.45;19.20;;;;;;;4.65;79.43;98277.94;5038810;28;45366;-84
2021/04/17 06:01:51;;;;;;;24.60;18.30;;;;;;;4.59;77.38;98278.41;5038512;28;45325;-84
2021/04/17 06:04:16;;;;;;;26.02;20.33;;;;;;;4.84;80.28;98284.41;5038631;28;45540;-84
2021/04/17 06:06:42;;;;;;;25.02;19.15;;;;;;;4.61;78.56;98289.66;5052046;28;45391;-84
2021/04/17 06:09:07;;;;;;;22.98;17.42;;;;;;;4.66;78.08;98289.31;5024821;28;47874;-84
2021/04/17 06:11:34;;;;;;;24.70;17.25;;;;;;;4.79;77.66;98289.19;5045392;28;45369;-83
2021/04/17 06:13:59;;;;;;;24.17;17.67;;;;;;;4.88;77.19;98298.19;5052156;28;45387;-86
2021/04/17 06:16:25;;;;;;;23.52;17.80;;;;;;;4.99;77.05;98290.28;5020013;28;45522;-86
2021/04/17 06:18:50;;;;;;;23.05;16.60;;;;;;;4.88;75.45;98299.06;5025057;28;48067;-85
2021/04/17 06:21:15;;;;;;;20.88;15.18;;;;;;;4.82;74.59;98296.88;5051834;28;45390;-86
2021/04/17 06:23:41;;;;;;;19.83;15.43;;;;;;;4.86;74.69;98290.44;5038380;28;45246;-85
2021/04/17 06:26:06;;;;;;;22.15;17.60;;;;;;;5.01;74.80;98285.75;5032121;28;45474;-85
2021/04/17 06:28:32;;;;;;;36.20;27.98;;;;;;;5.06;74.41;98288.84;5050218;28;46099;-86
2021/04/17 06:30:59;;;;;;;20.77;16.13;;;;;;;5.41;71.39;98287.03;5020054;28;45468;-85
2021/04/17 06:33:25;;;;;;;20.48;15.40;;;;;;;5.72;71.29;98287.19;5038410;28;45459;-83
2021/04/17 06:35:51;;;;;;;19.70;14.98;;;;;;;6.05;71.07;98292.53;5051531;28;45511;-85
2021/04/17 06:38:16;;;;;;;17.73;12.07;;;;;;;6.21;69.44;98300.03;5025555;28;48304;-83
2021/04/17 06:40:43;;;;;;;19.60;12.10;;;;;;;6.28;65.53;98293.28;5038396;28;45696;-83
2021/04/17 06:43:10;;;;;;;17.13;12.68;;;;;;;6.19;67.23;98291.41;5037002;28;45311;-86
2021/04/17 06:45:38;;;;;;;17.88;13.23;;;;;;;6.36;68.15;98295.28;5038094;28;45628;-85
2021/04/17 06:48:06;;;;;;;14.48;10.88;;;;;;;6.26;64.35;98298.69;5049378;28;46326;-82
2021/04/17 06:50:34;;;;;;;15.13;11.20;;;;;;;6.45;65.05;98306.88;5054953;28;45548;-84
2021/04/17 06:53:02;;;;;;;14.20;10.70;;;;;;;6.37;65.79;98308.34;5041459;28;45386;-84
2021/04/17 06:55:27;;;;;;;15.05;10.75;;;;;;;6.21;64.72;98322.00;5040920;28;45582;-84
2021/04/17 06:57:53;;;;;;;15.55;10.60;;;;;;;6.32;66.98;98328.22;5057675;28;46170;-84
2021/04/17 07:00:19;;;;;;;13.63;9.98;;;;;;;6.20;62.53;98330.91;5049848;28;46241;-84
2021/04/17 07:02:45;;;;;;;16.05;10.73;;;;;;;6.28;61.42;98331.09;5057749;28;45716;-90
2021/04/17 07:05:11;;;;;;;15.02;10.57;;;;;;;6.69;63.51;98322.47;5024116;28;45341;-85
2021/04/17 07:07:36;;;;;;;15.43;10.68;;;;;;;7.29;63.20;98317.34;5041380;28;45567;-83
2021/04/17 07:10:03;;;;;;;14.65;10.75;;;;;;;7.50;59.79;98303.22;5047761;28;45498;-85
2021/04/17 07:12:28;;;;;;;14.82;10.50;;;;;;;7.12;60.04;98304.75;5026546;28;45593;-84
2021/04/17 07:14:54;;;;;;;14.75;11.00;;;;;;;6.97;62.08;98313.03;5044326;28;45560;-86
2021/04/17 07:17:21;;;;;;;16.25;10.40;;;;;;;6.59;59.54;98309.19;5024268;28;47663;-82
2021/04/17 07:20:00;;;;;;;16.08;10.68;;;;;;;6.30;61.84;98317.75;5045870;28;45498;-84
2021/04/17 07:22:34;;;;;;;14.30;11.02;;;;;;;6.31;60.05;98314.16;5045545;28;45566;-84
2021/04/17 07:25:06;;;;;;;16.10;11.38;;;;;;;6.29;61.46;98310.78;5042389;28;45634;-84
2021/04/17 07:27:35;;;;;;;14.45;11.23;;;;;;;6.23;63.83;98309.53;5044505;28;45602;-85
2021/04/17 07:30:05;;;;;;;16.08;11.20;;;;;;;6.07;59.90;98304.66;5028220;28;45478;-85
2021/04/17 07:32:31;;;;;;;14.70;10.52;;;;;;;6.17;60.91;98309.19;5026240;28;45319;-85
2021/04/17 07:35:12;;;;;;;14.88;11.02;;;;;;;6.24;60.87;98305.91;5045385;28;45500;-86
2021/04/17 07:37:39;;;;;;;16.45;10.68;;;;;;;5.98;60.09;98300.09;5044168;28;46423;-86
2021/04/17 07:40:25;;;;;;;13.45;10.65;;;;;;;6.34;59.85;98295.41;5025214;28;45495;-84
2021/04/17 07:42:53;;;;;;;15.10;10.80;;;;;;;6.97;60.78;98296.34;5046610;28;45278;-85
2021/04/17 07:45:40;;;;;;;13.80;10.50;;;;;;;6.97;56.24;98281.31;5045897;28;45631;-84
2021/04/17 07:48:25;;;;;;;15.38;10.43;;;;;;;7.29;58.69;98284.78;5049589;28;45673;-84
2021/04/17 07:50:51;;;;;;;14.90;10.82;;;;;;;7.60;59.53;98290.00;5032280;28;45207;-83
2021/04/17 07:53:34;;;;;;;14.98;10.55;;;;;;;7.63;57.33;98287.09;5055823;28;45517;-87
2021/04/17 07:56:22;;;;;;;13.93;10.55;;;;;;;7.85;57.09;98279.88;5051169;28;45507;-87
2021/04/17 07:58:53;;;;;;;14.73;10.93;;;;;;;7.32;56.45;98281.03;5020586;28;47885;-84
2021/04/17 08:01:20;;;;;;;14.25;11.27;;;;;;;7.36;57.87;98282.41;5050793;28;45406;-84
2021/04/17 08:03:47;;;;;;;13.85;10.45;;;;;;;6.78;58.26;98281.22;5049778;28;45564;-85
2021/04/17 08:06:13;;;;;;;15.90;11.60;;;;;;;6.66;58.94;98272.53;5036097;28;45477;-85
2021/04/17 08:08:40;;;;;;;15.43;11.52;;;;;;;6.90;56.99;98264.31;5039955;28;45472;-84
2021/04/17 08:11:07;;;;;;;13.80;11.30;;;;;;;6.74;56.58;98274.53;5036979;28;46664;-86
2021/04/17 08:13:33;;;;;;;22.05;15.35;;;;;;;6.67;57.51;98272.41;5038132;28;46481;-85
2021/04/17 08:16:00;;;;;;;13.95;10.65;;;;;;;6.41;57.44;98274.59;5020876;28;45632;-86
2021/04/17 08:18:27;;;;;;;16.15;12.38;;;;;;;7.01;56.78;98256.28;5026898;28;47876;-86
2021/04/17 08:20:53;;;;;;;15.38;12.48;;;;;;;7.45;55.83;98260.44;5037654;28;45362;-86
2021/04/17 08:23:19;;;;;;;20.33;14.40;;;;;;;7.27;55.22;98252.34;5039736;28;45481;-91
2021/04/17 08:25:45;;;;;;;18.40;12.95;;;;;;;7.08;55.20;98251.31;5022528;28;45566;-87
2021/04/17 08:28:21;;;;;;;14.43;10.77;;;;;;;7.42;55.58;98250.97;5044829;28;45435;-85
2021/04/17 08:30:47;;;;;;;13.70;10.73;;;;;;;7.45;55.79;98242.78;5043131;28;45555;-84
2021/04/17 08:33:19;;;;;;;13.38;10.57;;;;;;;8.05;52.57;98254.25;5054100;28;45527;-83
2021/04/17 08:35:45;;;;;;;13.65;10.45;;;;;;;8.80;51.14;98244.81;5035075;28;45387;-82
2021/04/17 08:38:12;;;;;;;14.27;10.50;;;;;;;8.54;52.04;98248.09;5045992;28;46245;-87
2021/04/17 08:40:38;;;;;;;13.95;10.55;;;;;;;8.05;53.49;98242.84;5036100;28;45310;-86
2021/04/17 08:43:03;;;;;;;14.50;10.80;;;;;;;7.46;54.10;98243.59;5036414;28;45342;-84
2021/04/17 08:45:29;;;;;;;13.45;10.43;;;;;;;8.08;53.02;98243.38;5024333;28;45363;-87
2021/04/17 08:47:57;;;;;;;14.30;10.65;;;;;;;9.99;49.14;98238.69;5032009;28;48197;-87
2021/04/17 08:50:34;;;;;;;13.52;10.63;;;;;;;9.92;49.44;98245.59;5039265;28;45416;-86
2021/04/17 08:53:04;;;;;;;15.50;10.50;;;;;;;9.77;48.95;98239.97;5040548;28;45280;-87
2021/04/17 08:55:43;;;;;;;15.00;10.53;;;;;;;10.39;48.97;98241.84;5051023;28;45457;-87
2021/04/17 08:58:16;;;;;;;12.80;10.15;;;;;;;11.71;45.41;98241.63;5045153;28;47434;-89
2021/04/17 09:01:01;;;;;;;13.80;10.07;;;;;;;11.89;45.66;98236.16;5038667;28;45417;-88
2021/04/17 09:03:47;;;;;;;13.38;10.30;;;;;;;10.46;49.04;98242.06;5040167;28;45547;-86
2021/04/17 09:06:21;;;;;;;14.30;10.45;;;;;;;13.07;42.77;98228.72;5039367;28;45417;-89
2021/04/17 09:11:44;;;;;;;13.00;10.45;;;;;;;11.50;44.31;98224.28;5050187;28;45346;-86
2021/04/17 09:14:29;;;;;;;14.25;10.60;;;;;;;11.95;43.27;98227.53;5041241;28;45775;-86
2021/04/17 09:16:57;;;;;;;12.95;10.25;;;;;;;12.23;41.68;98223.72;5023672;28;45811;-87
2021/04/17 09:19:37;;;;;;;13.88;10.20;;;;;;;13.08;41.61;98218.88;5041446;28;45439;-86
2021/04/17 09:22:03;;;;;;;13.80;9.98;;;;;;;13.30;41.01;98216.47;5030919;28;45366;-90
2021/04/17 09:24:29;;;;;;;15.68;11.00;;;;;;;14.26;42.27;98221.53;5040522;28;45515;-88
2021/04/17 09:26:54;;;;;;;14.30;10.65;;;;;;;15.32;37.72;98209.88;5027073;28;45334;-89
2021/04/17 09:29:20;;;;;;;11.90;9.93;;;;;;;16.01;38.13;98213.13;5053224;28;46492;-89
2021/04/17 09:31:48;;;;;;;12.35;9.40;;;;;;;15.63;36.89;98199.91;5040024;28;45365;-90
2021/04/17 09:34:15;;;;;;;14.80;10.50;;;;;;;15.45;35.36;98198.50;5054873;28;45587;-88
2021/04/17 09:36:41;;;;;;;18.20;10.90;;;;;;;15.92;42.51;98193.66;5044479;28;45291;-89
2021/04/17 09:39:25;;;;;;;12.10;9.93;;;;;;;16.04;35.58;98191.28;5054068;28;45349;-88
2021/04/17 09:41:52;;;;;;;12.15;10.07;;;;;;;15.88;39.39;98189.69;5041881;28;45294;-87
2021/04/17 09:44:19;;;;;;;13.25;10.05;;;;;;;15.65;37.78;98182.66;5033200;28;45433;-88
2021/04/17 09:46:46;;;;;;;11.50;10.18;;;;;;;15.59;43.17;98186.91;5038881;28;45329;-86
2021/04/17 09:49:32;;;;;;;12.40;10.30;;;;;;;15.24;38.50;98189.41;5061529;28;46412;-89
2021/04/17 09:51:58;;;;;;;13.52;11.13;;;;;;;15.35;36.41;98192.59;5046810;28;45516;-86
2021/04/17 09:54:27;;;;;;;11.60;10.15;;;;;;;14.68;37.26;98200.56;5044266;28;45508;-86
2021/04/17 09:56:54;;;;;;;11.50;9.98;;;;;;;13.91;36.81;98194.41;5039153;28;45342;-86
2021/04/17 09:59:19;;;;;;;11.48;9.93;;;;;;;14.34;41.50;98184.03;5022344;28;47533;-87
2021/04/17 10:01:52;;;;;;;11.98;10.45;;;;;;;13.68;37.87;98177.34;5050859;28;45818;-91
2021/04/17 10:04:18;;;;;;;12.20;10.70;;;;;;;13.53;42.21;98173.78;5029724;28;45583;-83
2021/04/17 10:06:55;;;;;;;12.52;10.25;;;;;;;13.36;38.46;98175.69;5038054;28;45556;-85
2021/04/17 10:09:21;;;;;;;14.50;11.38;;;;;;;14.39;41.96;98173.59;5056292;28;46291;-88
2021/04/17 10:11:47;;;;;;;13.30;10.63;;;;;;;14.96;36.45;98157.13;5057974;28;45496;-88
2021/04/17 10:14:15;;;;;;;13.77;10.88;;;;;;;14.95;38.44;98158.94;5052739;28;45547;-88
2021/04/17 10:16:44;;;;;;;12.05;10.20;;;;;;;15.28;39.44;98150.50;5040220;28;45571;-86
2021/04/17 10:19:12;;;;;;;13.38;11.40;;;;;;;14.98;36.78;98147.88;5031415;28;47840;-87
2021/04/17 10:21:39;;;;;;;11.50;10.00;;;;;;;14.43;37.35;98141.94;5049524;28;45358;-84
2021/04/17 10:24:27;;;;;;;11.30;10.10;;;;;;;14.18;40.24;98154.75;5040002;28;45331;-86
2021/04/17 10:27:09;;;;;;;12.80;10.18;;;;;;;14.35;37.72;98144.72;5051509;28;45576;-86
2021/04/17 10:29:41;;;;;;;12.95;11.02;;;;;;;13.96;37.38;98143.91;5040843;28;45338;-82
2021/04/17 10:32:10;;;;;;;11.48;10.02;;;;;;;13.54;39.38;98148.72;5043537;28;45493;-83
2021/04/17 10:34:36;;;;;;;12.70;10.95;;;;;;;13.26;39.42;98142.03;5051127;28;45491;-88
2021/04/17 10:37:14;;;;;;;13.15;10.45;;;;;;;13.50;40.89;98142.06;5044818;28;45833;-86
2021/04/17 10:40:08;;;;;;;12.30;10.55;;;;;;;13.91;40.21;98128.41;5030297;28;47035;-89
2021/04/17 10:42:53;;;;;;;13.70;12.20;;;;;;;14.30;40.69;98121.19;5020938;28;45299;-91
2021/04/17 10:45:23;;;;;;;21.42;15.48;;;;;;;13.76;40.35;98124.88;5046293;28;45439;-86
2021/04/17 10:48:14;;;;;;;12.52;10.60;;;;;;;13.35;38.63;98123.28;5026568;28;45689;-88
2021/04/17 10:50:51;;;;;;;16.55;13.20;;;;;;;13.56;38.40;98112.81;5023458;28;47857;-84
2021/04/17 10:53:22;;;;;;;12.35;9.65;;;;;;;13.22;37.79;98122.00;5042594;28;45433;-86
2021/04/17 10:55:51;;;;;;;14.27;10.48;;;;;;;13.76;40.32;98114.19;5027707;28;45568;-87
2021/04/17 10:58:23;;;;;;;13.75;11.52;;;;;;;14.18;38.09;98107.44;5045023;28;45550;-85
2021/04/17 11:00:58;;;;;;;14.48;11.38;;;;;;;14.44;41.07;98098.97;5027857;28;47331;-86
2021/04/17 11:03:29;;;;;;;12.20;10.75;;;;;;;14.25;41.10;98104.88;5052227;28;45364;-88
2021/04/17 11:05:57;;;;;;;12.50;9.75;;;;;;;14.20;39.68;98101.91;5038287;28;45526;-89
2021/04/17 11:08:27;;;;;;;13.25;9.85;;;;;;;13.93;40.22;98094.31;5037729;28;45394;-86
2021/04/17 11:10:54;;;;;;;12.30;9.98;;;;;;;14.27;39.46;98103.66;5051932;28;45450;-87
2021/04/17 11:13:32;;;;;;;11.82;10.63;;;;;;;14.23;40.03;98094.34;5042583;28;45494;-86
2021/04/17 11:15:58;;;;;;;12.05;9.52;;;;;;;13.83;38.17;98096.41;5042383;28;45357;-86
2021/04/17 11:18:23;;;;;;;12.63;9.93;;;;;;;13.93;40.29;98083.63;5044012;28;45301;-89
2021/04/17 11:21:11;;;;;;;11.82;9.98;;;;;;;14.06;40.58;98082.97;5041364;28;45581;-87
2021/04/17 11:23:41;;;;;;;10.32;8.80;;;;;;;13.85;37.69;98087.19;5043977;28;45449;-86
2021/04/17 11:26:17;;;;;;;12.10;9.80;;;;;;;13.77;38.51;98081.09;5032909;28;45406;-87
2021/04/17 11:28:54;;;;;;;13.52;9.93;;;;;;;14.32;40.72;98065.69;5053967;28;45523;-87
2021/04/17 11:31:28;;;;;;;11.93;9.52;;;;;;;14.40;40.62;98068.25;5054811;28;45513;-87
2021/04/17 11:33:58;;;;;;;10.85;8.80;;;;;;;14.42;39.16;98062.72;5049128;28;45538;-86